createdAt,value
2022-10-28T00:01:15.901Z,94780.47
2022-10-28T00:03:45.188Z,94781.25
2022-10-28T00:06:15.399Z,94785.19
2022-10-28T00:08:42.369Z,94782.81
2022-10-28T00:11:18.385Z,94784.34
2022-10-28T00:13:45.786Z,94781.22
2022-10-28T00:16:19.053Z,94782.41
2022-10-28T00:18:46.391Z,94785.16
2022-10-28T00:21:17.500Z,94787.09
2022-10-28T00:23:44.549Z,94783.56
2022-10-28T00:26:20.222Z,94784.72
2022-10-28T00:28:50.769Z,94783.53
2022-10-28T00:31:19.815Z,94785.84
2022-10-28T00:33:46.766Z,94782.75
2022-10-28T00:36:18.729Z,94786.66
2022-10-28T00:38:47.781Z,94783.91
2022-10-28T00:41:23.248Z,94780.81
2022-10-28T00:43:52.487Z,94787.44
2022-10-28T00:46:37.000Z,94784.72
2022-10-28T00:49:09.157Z,94786.28
2022-10-28T00:51:36.049Z,94789.78
2022-10-28T00:54:04.393Z,94801.53
2022-10-28T00:56:34.212Z,94790.59
2022-10-28T00:59:04.355Z,94786.69
2022-10-28T01:01:31.084Z,94787.47
2022-10-28T01:03:58.152Z,94778.09
2022-10-28T01:06:27.571Z,94778.84
2022-10-28T01:08:57.531Z,94776.47
2022-10-28T01:11:44.665Z,94779.97
2022-10-28T01:14:31.732Z,94779.94
2022-10-28T01:17:20.121Z,94770.56
2022-10-28T01:20:19.222Z,94769.00
2022-10-28T01:23:10.304Z,94769.78
2022-10-28T01:26:00.299Z,94771.34
2022-10-28T01:28:45.404Z,94766.25
2022-10-28T01:31:15.401Z,94765.03
2022-10-28T01:33:57.835Z,94761.50
2022-10-28T01:36:39.684Z,94758.75
2022-10-28T01:39:21.188Z,94760.69
2022-10-28T01:42:02.284Z,94767.78
2022-10-28T01:44:34.119Z,94765.38
2022-10-28T01:47:06.336Z,94759.91
2022-10-28T01:50:03.268Z,94757.19
2022-10-28T01:52:32.251Z,94763.00
2022-10-28T01:55:13.369Z,94769.69
2022-10-28T01:57:42.045Z,94766.94
2022-10-28T02:00:09.604Z,94762.22
2022-10-28T02:02:38.519Z,94762.63
2022-10-28T02:05:44.536Z,94758.28
2022-10-28T02:08:20.822Z,94748.09
2022-10-28T02:11:15.145Z,94759.09
2022-10-28T02:14:08.733Z,94754.34
2022-10-28T02:16:42.954Z,94750.38
2022-10-28T02:19:09.478Z,94745.28
2022-10-28T02:21:36.212Z,94745.72
2022-10-28T02:24:13.993Z,94744.09
2022-10-28T02:26:47.092Z,94747.25
2022-10-28T02:29:31.881Z,94751.56
2022-10-28T02:32:07.222Z,94751.56
2022-10-28T02:34:39.057Z,94755.06
2022-10-28T02:37:11.717Z,94745.69
2022-10-28T02:39:46.290Z,94748.81
2022-10-28T02:42:19.355Z,94752.69
2022-10-28T02:44:51.312Z,94749.16
2022-10-28T02:47:23.597Z,94747.94
2022-10-28T02:49:57.749Z,94750.72
2022-10-28T02:52:26.206Z,94751.84
2022-10-28T02:54:59.678Z,94755.78
2022-10-28T02:57:49.597Z,94748.38
2022-10-28T03:00:20.331Z,94755.44
2022-10-28T03:02:46.992Z,94759.66
2022-10-28T03:05:14.300Z,94751.78
2022-10-28T03:07:41.113Z,94752.22
2022-10-28T03:10:08.552Z,94758.56
2022-10-28T03:12:35.298Z,94752.78
2022-10-28T03:15:02.979Z,94750.47
2022-10-28T03:17:29.591Z,94752.47
2022-10-28T03:19:56.261Z,94744.69
2022-10-28T03:22:22.885Z,94755.22
2022-10-28T03:24:49.475Z,94751.34
2022-10-28T03:27:16.073Z,94748.63
2022-10-28T03:29:45.680Z,94739.22
2022-10-28T03:32:13.193Z,94740.41
2022-10-28T03:34:39.955Z,94741.97
2022-10-28T03:37:06.630Z,94738.47
2022-10-28T03:39:33.217Z,94743.16
2022-10-28T03:41:59.836Z,94740.03
2022-10-28T03:44:26.530Z,94740.81
2022-10-28T03:46:53.113Z,94731.84
2022-10-28T03:49:19.719Z,94733.78
2022-10-28T03:51:46.329Z,94742.81
2022-10-28T03:54:12.928Z,94738.50
2022-10-28T03:56:40.580Z,94736.91
2022-10-28T03:59:09.815Z,94737.28
2022-10-28T04:01:36.620Z,94733.38
2022-10-28T04:04:03.398Z,94738.88
2022-10-28T04:06:30.277Z,94740.47
2022-10-28T04:08:57.038Z,94737.72
2022-10-28T04:11:23.669Z,94723.66
2022-10-28T04:13:50.453Z,94730.66
2022-10-28T04:16:17.068Z,94727.56
2022-10-28T04:18:43.641Z,94725.63
2022-10-28T04:21:10.364Z,94723.28
2022-10-28T04:23:36.989Z,94727.19
2022-10-28T04:26:03.681Z,94723.69
2022-10-28T04:28:30.302Z,94724.47
2022-10-28T04:30:56.883Z,94719.78
2022-10-28T04:33:23.537Z,94720.16
2022-10-28T04:35:50.175Z,94720.16
2022-10-28T04:38:16.858Z,94719.78
2022-10-28T04:40:43.588Z,94717.03
2022-10-28T04:43:11.705Z,94724.03
2022-10-28T04:45:39.398Z,94723.59
2022-10-28T04:48:06.590Z,94720.06
2022-10-28T04:50:33.317Z,94715.38
2022-10-28T04:53:00.070Z,94706.41
2022-10-28T04:55:26.729Z,94711.84
2022-10-28T04:57:57.527Z,94709.91
2022-10-28T05:00:26.431Z,94717.75
2022-10-28T05:02:53.583Z,94715.72
2022-10-28T05:05:21.065Z,94718.31
2022-10-28T05:07:48.085Z,94716.72
2022-10-28T05:10:18.234Z,94710.88
2022-10-28T05:12:47.978Z,94708.53
2022-10-28T05:15:15.197Z,94707.81
2022-10-28T05:17:46.240Z,94703.81
2022-10-28T05:20:15.469Z,94699.88
2022-10-28T05:22:53.908Z,94692.50
2022-10-28T05:25:21.866Z,94692.53
2022-10-28T05:27:48.625Z,94692.16
2022-10-28T05:30:15.485Z,94697.69
2022-10-28T05:32:42.569Z,94697.75
2022-10-28T05:35:09.876Z,94697.69
2022-10-28T05:37:36.763Z,94695.75
2022-10-28T05:40:04.203Z,94694.28
2022-10-28T05:42:30.836Z,94706.84
2022-10-28T05:44:57.408Z,94700.63
2022-10-28T05:47:24.100Z,94702.94
2022-10-28T05:49:50.691Z,94702.47
2022-10-28T05:52:17.292Z,94705.22
2022-10-28T05:54:43.968Z,94711.94
2022-10-28T05:57:10.570Z,94707.28
2022-10-28T05:59:37.281Z,94715.13
2022-10-28T06:02:03.855Z,94718.28
2022-10-28T06:04:31.050Z,94718.59
2022-10-28T06:06:57.733Z,94730.41
2022-10-28T06:09:27.349Z,94731.97
2022-10-28T06:11:52.489Z,94730.00
2022-10-28T06:14:19.442Z,94731.97
2022-10-28T06:16:46.037Z,94728.47
2022-10-28T06:19:12.836Z,94739.00
2022-10-28T06:21:39.534Z,94737.84
2022-10-28T06:24:09.850Z,94742.16
2022-10-28T06:26:39.136Z,94742.56
2022-10-28T06:29:08.809Z,94734.34
2022-10-28T06:31:38.833Z,94733.56
2022-10-28T06:34:05.481Z,94735.50
2022-10-28T06:36:32.074Z,94737.47
2022-10-28T06:38:58.731Z,94739.03
2022-10-28T06:41:25.355Z,94739.44
2022-10-28T06:43:52.103Z,94746.09
2022-10-28T06:46:18.753Z,94742.56
2022-10-28T06:48:46.929Z,94739.84
2022-10-28T06:51:13.561Z,94744.53
2022-10-28T06:53:40.200Z,94733.94
2022-10-28T06:56:07.308Z,94741.41
2022-10-28T06:58:33.882Z,94749.22
2022-10-28T07:01:04.993Z,94747.66
2022-10-28T07:03:32.962Z,94761.00
2022-10-28T07:06:00.342Z,94758.22
2022-10-28T07:08:28.610Z,94746.84
2022-10-28T07:10:56.670Z,94744.50
2022-10-28T07:13:24.772Z,94745.31
2022-10-28T07:15:58.135Z,94745.31
2022-10-28T07:18:26.897Z,94750.81
2022-10-28T07:20:53.870Z,94754.72
2022-10-28T07:23:20.738Z,94763.34
2022-10-28T07:25:55.064Z,94768.44
2022-10-28T07:28:25.988Z,94764.13
2022-10-28T07:30:52.859Z,94768.44
2022-10-28T07:33:19.566Z,94765.25
2022-10-28T07:35:46.169Z,94770.69
2022-10-28T07:38:12.871Z,94773.81
2022-10-28T07:40:39.535Z,94772.69
2022-10-28T07:43:06.132Z,94776.53
2022-10-28T07:45:33.900Z,94777.22
2022-10-28T07:48:00.524Z,94787.38
2022-10-28T07:50:27.229Z,94789.38
2022-10-28T07:52:54.277Z,94786.25
2022-10-28T07:55:21.567Z,94784.66
2022-10-28T07:57:49.198Z,94791.69
2022-10-28T08:00:15.987Z,94788.94
2022-10-28T08:02:42.630Z,94784.63
2022-10-28T08:05:09.649Z,94783.31
2022-10-28T08:07:38.613Z,94784.00
2022-10-28T08:10:06.643Z,94781.03
2022-10-28T08:12:33.501Z,94780.97
2022-10-28T08:15:00.144Z,94780.44
2022-10-28T08:17:26.781Z,94778.00
2022-10-28T08:19:53.402Z,94766.38
2022-10-28T08:22:20.033Z,94781.50
2022-10-28T08:24:46.685Z,94772.03
2022-10-28T08:27:13.374Z,94780.59
2022-10-28T08:29:39.966Z,94788.00
2022-10-28T08:32:09.608Z,94770.91
2022-10-28T08:34:39.307Z,94777.34
2022-10-28T08:37:09.509Z,94784.31
2022-10-28T08:39:36.241Z,94774.00
2022-10-28T08:42:22.532Z,94772.38
2022-10-28T08:45:15.405Z,94777.06
2022-10-28T08:47:52.884Z,94768.16
2022-10-28T08:50:23.145Z,94779.28
2022-10-28T08:53:01.290Z,94777.72
2022-10-28T08:55:35.217Z,94777.56
2022-10-28T08:58:11.868Z,94766.34
2022-10-28T09:00:39.849Z,94772.59
2022-10-28T09:03:12.402Z,94766.53
2022-10-28T09:05:41.177Z,94768.59
2022-10-28T09:08:23.513Z,94772.94
2022-10-28T09:10:56.090Z,94765.06
2022-10-28T09:13:40.759Z,94767.47
2022-10-28T09:16:26.490Z,94758.06
2022-10-28T09:18:55.907Z,94770.38
2022-10-28T09:21:32.877Z,94770.53
2022-10-28T09:24:12.317Z,94761.88
2022-10-28T09:26:53.321Z,94764.19
2022-10-28T09:29:44.177Z,94764.78
2022-10-28T09:32:20.454Z,94766.53
2022-10-28T09:34:57.461Z,94774.00
2022-10-28T09:37:40.766Z,94764.38
2022-10-28T09:40:13.065Z,94769.72
2022-10-28T09:42:45.792Z,94770.97
2022-10-28T09:45:17.834Z,94767.94
2022-10-28T09:47:50.202Z,94769.00
2022-10-28T09:50:23.901Z,94777.31
2022-10-28T09:53:20.870Z,94780.88
2022-10-28T09:55:47.506Z,94774.94
2022-10-28T09:58:14.203Z,94781.69
2022-10-28T10:00:41.233Z,94778.09
2022-10-28T10:03:07.989Z,94776.56
2022-10-28T10:05:42.414Z,94764.47
2022-10-28T10:08:14.889Z,94777.19
2022-10-28T10:11:01.680Z,94769.31
2022-10-28T10:13:33.975Z,94774.31
2022-10-28T10:16:25.017Z,94767.28
2022-10-28T10:18:56.970Z,94762.47
2022-10-28T10:21:45.173Z,94767.22
2022-10-28T10:24:25.990Z,94760.75
2022-10-28T10:26:53.348Z,94757.06
2022-10-28T10:29:21.554Z,94754.56
2022-10-28T10:31:48.765Z,94755.53
2022-10-28T10:34:25.144Z,94748.69
2022-10-28T10:36:55.552Z,94741.25
2022-10-28T10:39:26.929Z,94748.22
2022-10-28T10:41:56.636Z,94764.81
2022-10-28T10:44:23.160Z,94756.31
2022-10-28T10:46:55.608Z,94755.47
2022-10-28T10:49:22.260Z,94762.81
2022-10-28T10:51:58.269Z,94768.22
2022-10-28T10:54:31.436Z,94759.38
2022-10-28T10:57:20.539Z,94755.38
2022-10-28T10:59:49.564Z,94747.31
2022-10-28T11:02:34.898Z,94747.94
2022-10-28T11:05:09.029Z,94744.94
2022-10-28T11:07:37.356Z,94738.16
2022-10-28T11:10:04.923Z,94737.81
2022-10-28T11:12:36.412Z,94734.56
2022-10-28T11:15:05.310Z,94728.38
2022-10-28T11:17:34.282Z,94722.16
2022-10-28T11:20:24.952Z,94720.00
2022-10-28T11:23:14.029Z,94721.31
2022-10-28T11:25:45.821Z,94730.06
2022-10-28T11:28:35.283Z,94718.56
2022-10-28T11:31:39.469Z,94721.19
2022-10-28T11:34:41.665Z,94716.97
2022-10-28T11:37:46.946Z,94704.28
2022-10-28T11:40:30.805Z,94710.97
2022-10-28T11:43:18.401Z,94705.53
2022-10-28T11:45:55.754Z,94702.91
2022-10-28T11:48:41.019Z,94697.06
2022-10-28T11:51:47.524Z,94693.59
2022-10-28T11:54:32.715Z,94689.84
2022-10-28T11:57:24.312Z,94695.72
2022-10-28T12:00:23.134Z,94689.34
2022-10-28T12:03:15.301Z,94691.19
2022-10-28T12:06:01.288Z,94685.59
2022-10-28T12:08:43.339Z,94685.44
2022-10-28T12:11:12.762Z,94683.44
2022-10-28T12:14:10.571Z,94679.53
2022-10-28T12:17:06.518Z,94671.09
2022-10-28T12:19:38.816Z,94669.72
2022-10-28T12:22:25.970Z,94660.66
2022-10-28T12:24:54.272Z,94669.38
2022-10-28T12:27:32.403Z,94670.94
2022-10-28T12:30:21.247Z,94667.38
2022-10-28T12:32:53.028Z,94660.13
2022-10-28T12:35:30.361Z,94652.41
2022-10-28T12:38:27.314Z,94652.00
2022-10-28T12:41:08.472Z,94658.34
2022-10-28T12:43:50.762Z,94664.09
2022-10-28T12:46:44.945Z,94660.72
2022-10-28T12:49:25.192Z,94650.88
2022-10-28T12:51:52.095Z,94650.88
2022-10-28T12:54:28.878Z,94648.22
2022-10-28T12:57:04.541Z,94664.44
2022-10-28T12:59:43.138Z,94654.31
2022-10-28T13:02:20.217Z,94660.13
2022-10-28T13:04:47.089Z,94662.03
2022-10-28T13:07:47.278Z,94657.91
2022-10-28T13:10:31.475Z,94662.19
2022-10-28T13:13:14.610Z,94648.69
2022-10-28T13:16:05.594Z,94648.75
2022-10-28T13:18:47.843Z,94642.50
2022-10-28T13:21:30.960Z,94640.53
2022-10-28T13:24:13.606Z,94651.84
2022-10-28T13:26:43.750Z,94656.31
2022-10-28T13:29:23.891Z,94653.09
2022-10-28T13:31:52.375Z,94647.25
2022-10-28T13:34:22.308Z,94653.84
2022-10-28T13:37:00.767Z,94656.66
2022-10-28T13:39:31.694Z,94659.50
2022-10-28T13:42:13.489Z,94662.66
2022-10-28T13:44:53.296Z,94660.28
2022-10-28T13:47:26.950Z,94654.50
2022-10-28T13:50:09.046Z,94643.66
2022-10-28T13:52:40.712Z,94652.34
2022-10-28T13:55:16.152Z,94661.44
2022-10-28T13:57:46.896Z,94655.91
2022-10-28T14:00:20.151Z,94646.31
2022-10-28T14:02:49.649Z,94651.84
2022-10-28T14:05:25.536Z,94648.47
2022-10-28T14:07:58.987Z,94648.47
2022-10-28T14:10:31.552Z,94650.47
2022-10-28T14:13:18.590Z,94656.69
2022-10-28T14:15:48.140Z,94662.47
2022-10-28T14:18:41.811Z,94672.69
2022-10-28T14:21:02.465Z,94669.00
2022-10-28T14:23:29.064Z,94676.25
2022-10-28T14:25:56.205Z,94674.41
2022-10-28T14:28:29.059Z,94672.38
2022-10-28T14:31:14.628Z,94670.22
2022-10-28T14:33:46.847Z,94674.19
2022-10-28T14:36:19.457Z,94688.75
2022-10-28T14:39:07.055Z,94670.69
2022-10-28T14:42:15.634Z,94670.31
2022-10-28T14:45:21.571Z,94674.81
2022-10-28T14:48:15.043Z,94677.28
2022-10-28T14:50:47.827Z,94678.16
2022-10-28T14:53:22.354Z,94680.75
2022-10-28T14:55:57.256Z,94680.41
2022-10-28T14:58:28.214Z,94682.16
2022-10-28T15:01:20.316Z,94682.06
2022-10-28T15:03:55.634Z,94673.00
2022-10-28T15:06:42.119Z,94684.50
2022-10-28T15:09:17.723Z,94676.75
2022-10-28T15:11:47.947Z,94680.00
2022-10-28T15:14:28.771Z,94683.34
2022-10-28T15:16:55.611Z,94676.16
2022-10-28T15:19:24.876Z,94685.41
2022-10-28T15:22:12.039Z,94676.56
2022-10-28T15:24:42.983Z,94678.34
2022-10-28T15:27:13.986Z,94669.94
2022-10-28T15:29:42.609Z,94668.63
2022-10-28T15:32:26.604Z,94670.09
2022-10-28T15:34:53.349Z,94659.66
2022-10-28T15:37:23.155Z,94661.22
2022-10-28T15:39:52.357Z,94672.78
2022-10-28T15:42:42.195Z,94663.09
2022-10-28T15:45:18.229Z,94665.22
2022-10-28T15:47:47.087Z,94671.41
2022-10-28T15:50:16.679Z,94660.97
2022-10-28T15:52:53.556Z,94670.63
2022-10-28T15:55:41.350Z,94677.97
2022-10-28T15:58:19.400Z,94672.94
2022-10-28T16:00:54.891Z,94675.59
2022-10-28T16:03:27.530Z,94678.91
2022-10-28T16:05:59.157Z,94676.13
2022-10-28T16:08:30.171Z,94685.59
2022-10-28T16:11:13.466Z,94678.47
2022-10-28T16:13:49.296Z,94687.91
2022-10-28T16:16:28.812Z,94679.47
2022-10-28T16:19:27.451Z,94690.41
2022-10-28T16:21:54.117Z,94685.91
2022-10-28T16:24:20.965Z,94685.22
2022-10-28T16:26:49.658Z,94684.75
2022-10-28T16:29:16.286Z,94680.69
2022-10-28T16:31:52.736Z,94689.00
2022-10-28T16:34:19.516Z,94684.50
2022-10-28T16:36:46.146Z,94695.66
2022-10-28T16:39:14.809Z,94695.16
2022-10-28T16:41:41.430Z,94692.13
2022-10-28T16:44:18.433Z,94702.84
2022-10-28T16:46:45.104Z,94699.63
2022-10-28T16:49:14.091Z,94701.16
2022-10-28T16:51:40.734Z,94698.56
2022-10-28T16:54:07.588Z,94707.34
2022-10-28T16:56:34.190Z,94702.47
2022-10-28T16:59:00.871Z,94705.75
2022-10-28T17:01:28.232Z,94712.63
2022-10-28T17:03:54.859Z,94715.59
2022-10-28T17:06:21.479Z,94712.88
2022-10-28T17:09:04.055Z,94714.94
2022-10-28T17:11:33.196Z,94711.66
2022-10-28T17:13:59.899Z,94727.94
2022-10-28T17:16:26.535Z,94726.16
2022-10-28T17:18:53.121Z,94727.00
2022-10-28T17:21:19.805Z,94733.75
2022-10-28T17:23:46.451Z,94728.91
2022-10-28T17:26:13.082Z,94727.03
2022-10-28T17:28:39.662Z,94729.25
2022-10-28T17:31:08.396Z,94730.94
2022-10-28T17:33:35.183Z,94728.63
2022-10-28T17:36:07.878Z,94729.50
2022-10-28T17:38:34.836Z,94731.13
2022-10-28T17:41:01.802Z,94729.97
2022-10-28T17:43:28.462Z,94732.25
2022-10-28T17:46:06.866Z,94731.44
2022-10-28T17:48:34.524Z,94732.25
2022-10-28T17:51:01.296Z,94728.41
2022-10-28T17:53:28.078Z,94729.22
2022-10-28T17:55:58.985Z,94732.75
2022-10-28T17:58:26.108Z,94733.97
2022-10-28T18:01:00.091Z,94732.03
2022-10-28T18:03:27.770Z,94736.88
2022-10-28T18:05:54.444Z,94734.19
2022-10-28T18:08:22.514Z,94725.31
2022-10-28T18:10:54.873Z,94742.03
2022-10-28T18:13:35.950Z,94737.38
2022-10-28T18:16:08.934Z,94745.50
2022-10-28T18:18:40.945Z,94747.47
2022-10-28T18:21:11.172Z,94749.34
2022-10-28T18:23:38.616Z,94750.84
2022-10-28T18:26:07.584Z,94750.84
2022-10-28T18:28:36.082Z,94744.22
2022-10-28T18:31:07.574Z,94748.16
2022-10-28T18:33:34.663Z,94751.72
2022-10-28T18:36:03.083Z,94758.41
2022-10-28T18:38:30.702Z,94756.88
2022-10-28T18:40:57.461Z,94759.19
2022-10-28T18:43:24.484Z,94759.25
2022-10-28T18:45:51.568Z,94756.44
2022-10-28T18:48:18.659Z,94756.81
2022-10-28T18:50:56.037Z,94760.81
2022-10-28T18:53:22.728Z,94763.13
2022-10-28T18:55:49.335Z,94768.19
2022-10-28T18:58:15.926Z,94766.22
2022-10-28T19:00:42.577Z,94766.72
2022-10-28T19:03:19.347Z,94765.28
2022-10-28T19:05:46.197Z,94770.69
2022-10-28T19:08:12.962Z,94764.44
2022-10-28T19:10:40.172Z,94765.53
2022-10-28T19:13:06.992Z,94764.47
2022-10-28T19:15:34.923Z,94754.38
2022-10-28T19:18:01.547Z,94759.94
2022-10-28T19:20:28.250Z,94756.03
2022-10-28T19:22:55.107Z,94758.16
2022-10-28T19:25:22.002Z,94762.44
2022-10-28T19:27:48.615Z,94764.78
2022-10-28T19:30:15.323Z,94757.69
2022-10-28T19:32:41.968Z,94768.88
2022-10-28T19:35:09.063Z,94769.41
2022-10-28T19:37:35.748Z,94764.97
2022-10-28T19:40:02.390Z,94762.59
2022-10-28T19:42:28.983Z,94760.19
2022-10-28T19:44:56.081Z,94757.47
2022-10-28T19:47:22.684Z,94762.19
2022-10-28T19:49:49.289Z,94761.47
2022-10-28T19:52:15.977Z,94772.88
2022-10-28T19:54:43.751Z,94768.97
2022-10-28T19:57:10.435Z,94775.69
2022-10-28T19:59:37.217Z,94760.53
2022-10-28T20:02:03.931Z,94772.28
2022-10-28T20:04:30.595Z,94774.19
2022-10-28T20:06:58.789Z,94764.44
2022-10-28T20:09:28.902Z,94774.78
2022-10-28T20:11:56.047Z,94779.19
2022-10-28T20:14:22.737Z,94775.69
2022-10-28T20:16:49.354Z,94773.28
2022-10-28T20:19:15.986Z,94771.75
2022-10-28T20:21:44.448Z,94776.84
2022-10-28T20:24:11.027Z,94766.25
2022-10-28T20:26:38.826Z,94772.13
2022-10-28T20:29:09.786Z,94770.94
2022-10-28T20:31:38.863Z,94767.53
2022-10-28T20:34:06.280Z,94775.78
2022-10-28T20:36:35.026Z,94771.13
2022-10-28T20:39:02.809Z,94768.72
2022-10-28T20:41:32.458Z,94779.31
2022-10-28T20:44:04.253Z,94774.22
2022-10-28T20:46:31.268Z,94776.31
2022-10-28T20:48:58.046Z,94780.59
2022-10-28T20:51:26.242Z,94788.44
2022-10-28T20:53:53.973Z,94782.09
2022-10-28T20:56:26.320Z,94792.38
2022-10-28T20:58:54.984Z,94787.34
2022-10-28T21:01:25.292Z,94788.91
2022-10-28T21:03:56.889Z,94779.53
2022-10-28T21:06:24.477Z,94774.78
2022-10-28T21:08:55.046Z,94783.03
2022-10-28T21:11:23.480Z,94777.16
2022-10-28T21:13:52.615Z,94781.44
2022-10-28T21:16:20.324Z,94777.91
2022-10-28T21:18:47.454Z,94778.72
2022-10-28T21:21:14.311Z,94782.72
2022-10-28T21:23:41.156Z,94772.50
2022-10-28T21:26:12.357Z,94770.13
2022-10-28T21:28:41.458Z,94775.63
2022-10-28T21:31:14.245Z,94763.50
2022-10-28T21:33:42.001Z,94764.66
2022-10-28T21:36:17.877Z,94764.63
2022-10-28T21:38:53.861Z,94766.56
2022-10-28T21:41:21.721Z,94758.38
2022-10-28T21:43:49.968Z,94765.41
2022-10-28T21:46:18.309Z,94766.22
2022-10-28T21:48:45.421Z,94771.28
2022-10-28T21:51:15.140Z,94769.69
2022-10-28T21:53:43.621Z,94769.00
2022-10-28T21:56:19.262Z,94772.97
2022-10-28T21:58:48.126Z,94789.03
2022-10-28T22:01:17.978Z,94786.28
2022-10-28T22:03:44.777Z,94780.41
2022-10-28T22:06:11.541Z,94789.03
2022-10-28T22:08:38.225Z,94786.69
2022-10-28T22:11:15.871Z,94778.44
2022-10-28T22:13:42.688Z,94795.34
2022-10-28T22:16:17.449Z,94789.06
2022-10-28T22:18:45.016Z,94787.13
2022-10-28T22:21:14.789Z,94779.28
2022-10-28T22:23:41.941Z,94785.94
2022-10-28T22:26:11.309Z,94784.78
2022-10-28T22:28:38.434Z,94778.53
2022-10-28T22:31:08.190Z,94787.53
2022-10-28T22:33:35.382Z,94784.44
2022-10-28T22:36:10.336Z,94782.13
2022-10-28T22:38:37.242Z,94777.78
2022-10-28T22:41:14.882Z,94778.19
2022-10-28T22:43:43.842Z,94774.66
2022-10-28T22:46:12.163Z,94770.72
2022-10-28T22:48:39.063Z,94774.66
2022-10-28T22:51:05.776Z,94764.88
2022-10-28T22:53:32.494Z,94763.28
2022-10-28T22:55:59.103Z,94773.88
2022-10-28T22:58:27.335Z,94768.78
2022-10-28T23:00:54.005Z,94765.25
2022-10-28T23:03:20.593Z,94770.75
2022-10-28T23:05:47.347Z,94765.66
2022-10-28T23:08:16.023Z,94757.84
2022-10-28T23:10:42.821Z,94759.38
2022-10-28T23:13:13.075Z,94760.59
2022-10-28T23:15:39.836Z,94756.66
2022-10-28T23:18:06.448Z,94753.91
2022-10-28T23:20:36.401Z,94747.25
2022-10-28T23:23:03.244Z,94753.16
2022-10-28T23:25:29.853Z,94751.56
2022-10-28T23:27:56.922Z,94746.47
2022-10-28T23:30:24.061Z,94749.59
2022-10-28T23:32:50.719Z,94746.47
2022-10-28T23:35:17.385Z,94741.78
2022-10-28T23:37:44.013Z,94746.88
2022-10-28T23:40:11.204Z,94748.06
2022-10-28T23:42:37.888Z,94754.34
2022-10-28T23:45:05.136Z,94752.00
2022-10-28T23:47:31.762Z,94747.66
2022-10-28T23:49:58.411Z,94748.84
2022-10-28T23:52:25.104Z,94757.88
2022-10-28T23:54:51.712Z,94756.28
2022-10-28T23:57:18.419Z,94753.53
2022-10-28T23:59:45.083Z,94747.66
